sensor_id;sensor_type;location;lat;lon;timestamp;pressure;altitude;pressure_sealevel;temperature
19061;BMP280;9663;48.996;8.334;2024-01-30T00:01:17;101663.41;;;10.24
19061;BMP280;9663;48.996;8.334;2024-01-30T00:03:42;101668.50;;;10.24
19061;BMP280;9663;48.996;8.334;2024-01-30T00:06:08;101659.16;;;10.23
19061;BMP280;9663;48.996;8.334;2024-01-30T00:08:34;101662.53;;;10.23
19061;BMP280;9663;48.996;8.334;2024-01-30T00:11:00;101665.97;;;10.24
19061;BMP280;9663;48.996;8.334;2024-01-30T00:13:26;101661.69;;;10.23
19061;BMP280;9663;48.996;8.334;2024-01-30T00:15:52;101667.63;;;10.22
19061;BMP280;9663;48.996;8.334;2024-01-30T00:18:18;101668.44;;;10.21
19061;BMP280;9663;48.996;8.334;2024-01-30T00:20:44;101664.16;;;10.20
19061;BMP280;9663;48.996;8.334;2024-01-30T00:23:10;101668.38;;;10.18
19061;BMP280;9663;48.996;8.334;2024-01-30T00:25:35;101680.16;;;10.16
19061;BMP280;9663;48.996;8.334;2024-01-30T00:28:01;101686.03;;;10.15
19061;BMP280;9663;48.996;8.334;2024-01-30T00:30:27;101675.88;;;10.12
19061;BMP280;9663;48.996;8.334;2024-01-30T00:32:53;101683.41;;;10.09
19061;BMP280;9663;48.996;8.334;2024-01-30T00:35:19;101681.69;;;10.08
19061;BMP280;9663;48.996;8.334;2024-01-30T00:37:45;101679.13;;;10.07
19061;BMP280;9663;48.996;8.334;2024-01-30T00:40:11;101672.28;;;10.03
19061;BMP280;9663;48.996;8.334;2024-01-30T00:42:42;101684.09;;;10.02
19061;BMP280;9663;48.996;8.334;2024-01-30T00:45:15;101679.03;;;10.01
19061;BMP280;9663;48.996;8.334;2024-01-30T00:47:42;101680.63;;;9.99
19061;BMP280;9663;48.996;8.334;2024-01-30T00:50:08;101681.44;;;9.96
19061;BMP280;9663;48.996;8.334;2024-01-30T00:52:34;101689.88;;;9.95
19061;BMP280;9663;48.996;8.334;2024-01-30T00:55:01;101683.16;;;9.96
19061;BMP280;9663;48.996;8.334;2024-01-30T00:57:26;101682.28;;;9.97
19061;BMP280;9663;48.996;8.334;2024-01-30T00:59:52;101673.88;;;9.98
19061;BMP280;9663;48.996;8.334;2024-01-30T01:02:18;101678.97;;;9.99
19061;BMP280;9663;48.996;8.334;2024-01-30T01:04:44;101673.97;;;10.04
19061;BMP280;9663;48.996;8.334;2024-01-30T01:07:11;101681.66;;;10.07
19061;BMP280;9663;48.996;8.334;2024-01-30T01:09:37;101669.00;;;10.08
19061;BMP280;9663;48.996;8.334;2024-01-30T01:12:03;101678.38;;;10.11
19061;BMP280;9663;48.996;8.334;2024-01-30T01:14:30;101685.13;;;10.12
19061;BMP280;9663;48.996;8.334;2024-01-30T01:16:55;101685.97;;;10.11
19061;BMP280;9663;48.996;8.334;2024-01-30T01:19:22;101677.47;;;10.09
19061;BMP280;9663;48.996;8.334;2024-01-30T01:21:47;101678.34;;;10.09
19061;BMP280;9663;48.996;8.334;2024-01-30T01:24:13;101680.88;;;10.09
19061;BMP280;9663;48.996;8.334;2024-01-30T01:26:39;101680.91;;;10.11
19061;BMP280;9663;48.996;8.334;2024-01-30T01:29:06;101682.56;;;10.10
19061;BMP280;9663;48.996;8.334;2024-01-30T01:31:41;101672.41;;;10.09
19061;BMP280;9663;48.996;8.334;2024-01-30T01:34:10;101678.34;;;10.09
19061;BMP280;9663;48.996;8.334;2024-01-30T01:36:36;101669.00;;;10.08
19061;BMP280;9663;48.996;8.334;2024-01-30T01:39:03;101678.34;;;10.09
19061;BMP280;9663;48.996;8.334;2024-01-30T01:41:34;101671.53;;;10.08
19061;BMP280;9663;48.996;8.334;2024-01-30T01:44:00;101663.88;;;10.05
19061;BMP280;9663;48.996;8.334;2024-01-30T01:46:30;101667.25;;;10.04
19061;BMP280;9663;48.996;8.334;2024-01-30T01:48:56;101664.63;;;10.00
19061;BMP280;9663;48.996;8.334;2024-01-30T01:51:24;101660.31;;;9.97
19061;BMP280;9663;48.996;8.334;2024-01-30T01:53:57;101656.09;;;9.96
19061;BMP280;9663;48.996;8.334;2024-01-30T01:56:24;101662.78;;;9.93
19061;BMP280;9663;48.996;8.334;2024-01-30T01:58:51;101658.47;;;9.90
19061;BMP280;9663;48.996;8.334;2024-01-30T02:01:20;101663.50;;;9.89
19061;BMP280;9663;48.996;8.334;2024-01-30T02:03:46;101659.19;;;9.83
19061;BMP280;9663;48.996;8.334;2024-01-30T02:06:14;101666.75;;;9.82
19061;BMP280;9663;48.996;8.334;2024-01-30T02:08:41;101665.84;;;9.78
19061;BMP280;9663;48.996;8.334;2024-01-30T02:11:07;101666.56;;;9.73
19061;BMP280;9663;48.996;8.334;2024-01-30T02:13:33;101669.00;;;9.69
19061;BMP280;9663;48.996;8.334;2024-01-30T02:15:58;101668.09;;;9.65
19061;BMP280;9663;48.996;8.334;2024-01-30T02:18:24;101667.16;;;9.62
19061;BMP280;9663;48.996;8.334;2024-01-30T02:20:54;101669.66;;;9.60
19061;BMP280;9663;48.996;8.334;2024-01-30T02:33:33;101670.31;;;9.52
19061;BMP280;9663;48.996;8.334;2024-01-30T02:35:59;101667.72;;;9.49
19061;BMP280;9663;48.996;8.334;2024-01-30T02:38:25;101668.53;;;9.48
19061;BMP280;9663;48.996;8.334;2024-01-30T02:40:52;101667.66;;;9.46
19061;BMP280;9663;48.996;8.334;2024-01-30T02:43:18;101665.91;;;9.43
19061;BMP280;9663;48.996;8.334;2024-01-30T02:45:43;101670.03;;;9.40
19061;BMP280;9663;48.996;8.334;2024-01-30T02:48:09;101666.59;;;9.36
19061;BMP280;9663;48.996;8.334;2024-01-30T02:50:35;101674.97;;;9.34
19061;BMP280;9663;48.996;8.334;2024-01-30T02:53:00;101679.97;;;9.31
19061;BMP280;9663;48.996;8.334;2024-01-30T02:55:26;101673.13;;;9.27
19061;BMP280;9663;48.996;8.334;2024-01-30T02:57:52;101676.44;;;9.25
19061;BMP280;9663;48.996;8.334;2024-01-30T03:00:19;101676.41;;;9.23
19061;BMP280;9663;48.996;8.334;2024-01-30T03:02:45;101675.59;;;9.24
19061;BMP280;9663;48.996;8.334;2024-01-30T03:05:11;101670.50;;;9.23
19061;BMP280;9663;48.996;8.334;2024-01-30T03:07:37;101678.97;;;9.25
19061;BMP280;9663;48.996;8.334;2024-01-30T03:10:05;101678.16;;;9.26
19061;BMP280;9663;48.996;8.334;2024-01-30T03:12:32;101668.88;;;9.26
19061;BMP280;9663;48.996;8.334;2024-01-30T03:14:57;101675.75;;;9.32
19061;BMP280;9663;48.996;8.334;2024-01-30T03:17:23;101677.47;;;9.33
19061;BMP280;9663;48.996;8.334;2024-01-30T03:19:50;101677.47;;;9.33
19061;BMP280;9663;48.996;8.334;2024-01-30T03:22:15;101677.56;;;9.36
19061;BMP280;9663;48.996;8.334;2024-01-30T03:24:41;101674.13;;;9.35
19061;BMP280;9663;48.996;8.334;2024-01-30T03:27:07;101675.06;;;9.37
19061;BMP280;9663;48.996;8.334;2024-01-30T03:29:33;101679.25;;;9.36
19061;BMP280;9663;48.996;8.334;2024-01-30T03:31:59;101672.56;;;9.38
19061;BMP280;9663;48.996;8.334;2024-01-30T03:34:24;101670.88;;;9.39
19061;BMP280;9663;48.996;8.334;2024-01-30T03:36:50;101667.50;;;9.38
19061;BMP280;9663;48.996;8.334;2024-01-30T03:39:16;101664.03;;;9.36
19061;BMP280;9663;48.996;8.334;2024-01-30T03:41:42;101674.97;;;9.34
19061;BMP280;9663;48.996;8.334;2024-01-30T03:44:10;101675.72;;;9.30
19061;BMP280;9663;48.996;8.334;2024-01-30T03:46:36;101675.63;;;9.26
19061;BMP280;9663;48.996;8.334;2024-01-30T03:49:01;101667.91;;;9.21
19061;BMP280;9663;48.996;8.334;2024-01-30T03:51:27;101669.59;;;9.21
19061;BMP280;9663;48.996;8.334;2024-01-30T03:53:53;101673.75;;;9.19
19061;BMP280;9663;48.996;8.334;2024-01-30T03:58:51;101671.22;;;9.19
19061;BMP280;9663;48.996;8.334;2024-01-30T04:03:52;101670.34;;;9.17
19061;BMP280;9663;48.996;8.334;2024-01-30T04:14:04;101673.84;;;9.22
19061;BMP280;9663;48.996;8.334;2024-01-30T04:19:05;101672.22;;;9.25
19061;BMP280;9663;48.996;8.334;2024-01-30T04:21:30;101673.13;;;9.27
19061;BMP280;9663;48.996;8.334;2024-01-30T04:26:31;101670.69;;;9.32
19061;BMP280;9663;48.996;8.334;2024-01-30T04:31:32;101677.56;;;9.36
19061;BMP280;9663;48.996;8.334;2024-01-30T04:36:33;101680.03;;;9.34
19061;BMP280;9663;48.996;8.334;2024-01-30T04:38:59;101682.53;;;9.33
19061;BMP280;9663;48.996;8.334;2024-01-30T04:41:24;101676.63;;;9.32
19061;BMP280;9663;48.996;8.334;2024-01-30T04:43:51;101674.06;;;9.31
19061;BMP280;9663;48.996;8.334;2024-01-30T04:46:17;101676.59;;;9.31
19061;BMP280;9663;48.996;8.334;2024-01-30T04:51:18;101676.56;;;9.29
19061;BMP280;9663;48.996;8.334;2024-01-30T04:53:43;101673.19;;;9.30
19061;BMP280;9663;48.996;8.334;2024-01-30T04:56:09;101666.44;;;9.29
19061;BMP280;9663;48.996;8.334;2024-01-30T04:58:36;101667.31;;;9.31
19061;BMP280;9663;48.996;8.334;2024-01-30T05:03:33;101667.34;;;9.33
19061;BMP280;9663;48.996;8.334;2024-01-30T05:06:00;101669.91;;;9.34
19061;BMP280;9663;48.996;8.334;2024-01-30T05:08:25;101673.28;;;9.35
19061;BMP280;9663;48.996;8.334;2024-01-30T05:10:51;101676.66;;;9.35
19061;BMP280;9663;48.996;8.334;2024-01-30T05:13:17;101683.47;;;9.36
19061;BMP280;9663;48.996;8.334;2024-01-30T05:15:42;101667.41;;;9.36
19061;BMP280;9663;48.996;8.334;2024-01-30T05:18:08;101682.59;;;9.34
19061;BMP280;9663;48.996;8.334;2024-01-30T05:20:34;101679.97;;;9.31
19061;BMP280;9663;48.996;8.334;2024-01-30T05:23:00;101681.53;;;9.26
19061;BMP280;9663;48.996;8.334;2024-01-30T05:25:25;101685.66;;;9.21
19061;BMP280;9663;48.996;8.334;2024-01-30T05:27:51;101680.47;;;9.17
19061;BMP280;9663;48.996;8.334;2024-01-30T05:30:17;101681.19;;;9.11
19061;BMP280;9663;48.996;8.334;2024-01-30T05:32:43;101681.09;;;9.08
19061;BMP280;9663;48.996;8.334;2024-01-30T05:35:09;101688.63;;;9.05
19061;BMP280;9663;48.996;8.334;2024-01-30T05:37:34;101691.13;;;9.04
19061;BMP280;9663;48.996;8.334;2024-01-30T05:40:00;101687.75;;;9.03
19061;BMP280;9663;48.996;8.334;2024-01-30T05:42:26;101687.69;;;9.02
19061;BMP280;9663;48.996;8.334;2024-01-30T05:44:52;101691.09;;;9.02
19061;BMP280;9663;48.996;8.334;2024-01-30T05:47:17;101691.91;;;9.01
19061;BMP280;9663;48.996;8.334;2024-01-30T05:49:43;101691.88;;;9.00
19061;BMP280;9663;48.996;8.334;2024-01-30T05:52:09;101691.91;;;9.01
19061;BMP280;9663;48.996;8.334;2024-01-30T05:54:35;101692.72;;;9.00
19061;BMP280;9663;48.996;8.334;2024-01-30T05:57:01;101696.16;;;9.02
19061;BMP280;9663;48.996;8.334;2024-01-30T05:59:26;101694.53;;;9.04
19061;BMP280;9663;48.996;8.334;2024-01-30T06:01:52;101698.72;;;9.04
19061;BMP280;9663;48.996;8.334;2024-01-30T06:04:18;101698.78;;;9.07
19061;BMP280;9663;48.996;8.334;2024-01-30T06:06:44;101699.66;;;9.07
19061;BMP280;9663;48.996;8.334;2024-01-30T06:09:09;101703.03;;;9.08
19061;BMP280;9663;48.996;8.334;2024-01-30T06:11:35;101700.59;;;9.11
19061;BMP280;9663;48.996;8.334;2024-01-30T06:14:01;101703.97;;;9.11
19061;BMP280;9663;48.996;8.334;2024-01-30T07:09:21;101703.31;;;8.85
19061;BMP280;9663;48.996;8.334;2024-01-30T07:27:20;101706.44;;;9.08
19061;BMP280;9663;48.996;8.334;2024-01-30T07:29:47;101710.00;;;9.16
19061;BMP280;9663;48.996;8.334;2024-01-30T07:32:12;101714.38;;;9.23
19061;BMP280;9663;48.996;8.334;2024-01-30T07:34:38;101716.28;;;9.32
19061;BMP280;9663;48.996;8.334;2024-01-30T07:37:04;101719.81;;;9.38
19061;BMP280;9663;48.996;8.334;2024-01-30T07:39:29;101727.56;;;9.44
19061;BMP280;9663;48.996;8.334;2024-01-30T07:41:55;101722.69;;;9.53
19061;BMP280;9663;48.996;8.334;2024-01-30T07:44:22;101720.34;;;9.60
19061;BMP280;9663;48.996;8.334;2024-01-30T07:46:47;101729.81;;;9.69
19061;BMP280;9663;48.996;8.334;2024-01-30T07:49:13;101721.56;;;9.77
19061;BMP280;9663;48.996;8.334;2024-01-30T07:51:39;101720.13;;;9.88
19061;BMP280;9663;48.996;8.334;2024-01-30T07:54:12;101726.25;;;9.97
19061;BMP280;9663;48.996;8.334;2024-01-30T07:56:37;101726.41;;;10.05
19061;BMP280;9663;48.996;8.334;2024-01-30T07:59:03;101729.13;;;10.14
19061;BMP280;9663;48.996;8.334;2024-01-30T08:01:29;101720.88;;;10.22
19061;BMP280;9663;48.996;8.334;2024-01-30T08:03:54;101721.84;;;10.30
19061;BMP280;9663;48.996;8.334;2024-01-30T08:06:20;101725.44;;;10.39
19061;BMP280;9663;48.996;8.334;2024-01-30T08:08:46;101735.75;;;10.48
19061;BMP280;9663;48.996;8.334;2024-01-30T08:11:12;101733.38;;;10.57
19061;BMP280;9663;48.996;8.334;2024-01-30T08:13:38;101730.19;;;10.67
19061;BMP280;9663;48.996;8.334;2024-01-30T08:16:04;101736.31;;;10.78
19061;BMP280;9663;48.996;8.334;2024-01-30T08:18:30;101726.41;;;10.91
19061;BMP280;9663;48.996;8.334;2024-01-30T08:20:55;101734.22;;;11.03
19061;BMP280;9663;48.996;8.334;2024-01-30T08:23:21;101728.47;;;11.13
19061;BMP280;9663;48.996;8.334;2024-01-30T08:25:47;101732.00;;;11.22
19061;BMP280;9663;48.996;8.334;2024-01-30T08:28:12;101729.59;;;11.31
19061;BMP280;9663;48.996;8.334;2024-01-30T08:30:38;101728.91;;;11.41
19061;BMP280;9663;48.996;8.334;2024-01-30T08:33:05;101737.59;;;11.52
19061;BMP280;9663;48.996;8.334;2024-01-30T08:35:30;101729.28;;;11.62
19061;BMP280;9663;48.996;8.334;2024-01-30T08:37:59;101726.81;;;11.69
19061;BMP280;9663;48.996;8.334;2024-01-30T08:40:24;101730.31;;;11.76
19061;BMP280;9663;48.996;8.334;2024-01-30T08:42:50;101730.41;;;11.83
19061;BMP280;9663;48.996;8.334;2024-01-30T08:45:16;101735.59;;;11.89
19061;BMP280;9663;48.996;8.334;2024-01-30T08:47:41;101733.16;;;11.96
19061;BMP280;9663;48.996;8.334;2024-01-30T08:50:07;101736.66;;;12.06
19061;BMP280;9663;48.996;8.334;2024-01-30T08:52:33;101750.31;;;12.12
19061;BMP280;9663;48.996;8.334;2024-01-30T08:55:00;101735.13;;;12.18
19061;BMP280;9663;48.996;8.334;2024-01-30T08:57:25;101741.97;;;12.24
19061;BMP280;9663;48.996;8.334;2024-01-30T08:59:54;101738.66;;;12.31
19061;BMP280;9663;48.996;8.334;2024-01-30T09:02:20;101741.25;;;12.36
19061;BMP280;9663;48.996;8.334;2024-01-30T09:04:46;101741.31;;;12.39
19061;BMP280;9663;48.996;8.334;2024-01-30T09:07:12;101726.97;;;12.46
19061;BMP280;9663;48.996;8.334;2024-01-30T09:09:39;101735.53;;;12.54
19061;BMP280;9663;48.996;8.334;2024-01-30T09:12:08;101733.09;;;12.64
19061;BMP280;9663;48.996;8.334;2024-01-30T09:14:38;101745.06;;;12.74
19061;BMP280;9663;48.996;8.334;2024-01-30T09:17:04;101747.78;;;12.83
19061;BMP280;9663;48.996;8.334;2024-01-30T09:19:30;101739.38;;;12.93
19061;BMP280;9663;48.996;8.334;2024-01-30T09:21:56;101748.75;;;12.98
19061;BMP280;9663;48.996;8.334;2024-01-30T09:24:22;101747.97;;;13.07
19061;BMP280;9663;48.996;8.334;2024-01-30T09:26:48;101742.97;;;13.14
19061;BMP280;9663;48.996;8.334;2024-01-30T09:29:13;101745.56;;;13.23
19061;BMP280;9663;48.996;8.334;2024-01-30T09:31:39;101743.13;;;13.33
19061;BMP280;9663;48.996;8.334;2024-01-30T09:34:05;101740.66;;;13.44
19061;BMP280;9663;48.996;8.334;2024-01-30T09:36:31;101731.38;;;13.52
19061;BMP280;9663;48.996;8.334;2024-01-30T09:38:57;101736.53;;;13.62
19061;BMP280;9663;48.996;8.334;2024-01-30T09:41:24;101729.78;;;13.71
19061;BMP280;9663;48.996;8.334;2024-01-30T09:43:51;101740.91;;;13.82
19061;BMP280;9663;48.996;8.334;2024-01-30T09:46:17;101741.81;;;13.92
19061;BMP280;9663;48.996;8.334;2024-01-30T09:48:47;101744.41;;;14.01
19061;BMP280;9663;48.996;8.334;2024-01-30T09:51:15;101737.66;;;14.10
19061;BMP280;9663;48.996;8.334;2024-01-30T09:53:42;101740.44;;;14.74
19061;BMP280;9663;48.996;8.334;2024-01-30T09:56:09;101742.09;;;14.47
19061;BMP280;9663;48.996;8.334;2024-01-30T09:58:36;101749.75;;;14.50
19061;BMP280;9663;48.996;8.334;2024-01-30T10:01:02;101745.50;;;14.56
19061;BMP280;9663;48.996;8.334;2024-01-30T10:03:28;101747.25;;;14.66
19061;BMP280;9663;48.996;8.334;2024-01-30T10:05:56;101745.53;;;14.75
19061;BMP280;9663;48.996;8.334;2024-01-30T10:08:21;101746.50;;;15.35
19061;BMP280;9663;48.996;8.334;2024-01-30T10:10:48;101753.28;;;15.11
19061;BMP280;9663;48.996;8.334;2024-01-30T10:13:16;101751.63;;;15.19
19061;BMP280;9663;48.996;8.334;2024-01-30T10:15:42;101762.69;;;15.25
19061;BMP280;9663;48.996;8.334;2024-01-30T10:18:11;101761.81;;;15.29
19061;BMP280;9663;48.996;8.334;2024-01-30T10:20:37;101759.25;;;15.28
19061;BMP280;9663;48.996;8.334;2024-01-30T10:23:03;101759.28;;;15.31
19061;BMP280;9663;48.996;8.334;2024-01-30T10:25:33;101759.28;;;15.29
19061;BMP280;9663;48.996;8.334;2024-01-30T10:27:59;101754.09;;;15.80
19061;BMP280;9663;48.996;8.334;2024-01-30T10:30:24;101749.00;;;15.85
19061;BMP280;9663;48.996;8.334;2024-01-30T10:32:51;101743.06;;;15.51
19061;BMP280;9663;48.996;8.334;2024-01-30T10:35:17;101754.16;;;15.54
19061;BMP280;9663;48.996;8.334;2024-01-30T10:37:48;101752.44;;;15.59
19061;BMP280;9663;48.996;8.334;2024-01-30T10:40:15;101743.91;;;15.63
19061;BMP280;9663;48.996;8.334;2024-01-30T10:42:45;101754.13;;;15.68
19061;BMP280;9663;48.996;8.334;2024-01-30T10:45:13;101741.34;;;15.68
19061;BMP280;9663;48.996;8.334;2024-01-30T10:47:41;101751.50;;;15.91
19061;BMP280;9663;48.996;8.334;2024-01-30T10:50:09;101744.72;;;15.80
19061;BMP280;9663;48.996;8.334;2024-01-30T10:52:36;101750.66;;;15.83
19061;BMP280;9663;48.996;8.334;2024-01-30T10:55:04;101747.28;;;15.87
19061;BMP280;9663;48.996;8.334;2024-01-30T10:57:37;101753.22;;;15.92
19061;BMP280;9663;48.996;8.334;2024-01-30T11:00:15;101743.00;;;15.92
19061;BMP280;9663;48.996;8.334;2024-01-30T11:02:46;101728.47;;;15.93
19061;BMP280;9663;48.996;8.334;2024-01-30T11:05:13;101739.56;;;15.93
19061;BMP280;9663;48.996;8.334;2024-01-30T11:07:40;101732.72;;;15.98
19061;BMP280;9663;48.996;8.334;2024-01-30T11:10:11;101724.94;;;16.37
19061;BMP280;9663;48.996;8.334;2024-01-30T11:12:40;101730.94;;;16.25
19061;BMP280;9663;48.996;8.334;2024-01-30T11:15:08;101731.75;;;16.38
19061;BMP280;9663;48.996;8.334;2024-01-30T11:20:27;101716.25;;;16.62
19061;BMP280;9663;48.996;8.334;2024-01-30T11:22:57;101730.69;;;16.74
19061;BMP280;9663;48.996;8.334;2024-01-30T11:25:24;101726.25;;;17.00
19061;BMP280;9663;48.996;8.334;2024-01-30T11:27:52;101722.88;;;16.94
19061;BMP280;9663;48.996;8.334;2024-01-30T11:33:12;101719.41;;;16.98
19061;BMP280;9663;48.996;8.334;2024-01-30T11:35:44;101726.09;;;17.19
19061;BMP280;9663;48.996;8.334;2024-01-30T11:38:13;101707.22;;;18.07
19061;BMP280;9663;48.996;8.334;2024-01-30T11:40:40;101720.16;;;17.99
19061;BMP280;9663;48.996;8.334;2024-01-30T11:43:07;101720.56;;;18.36
19061;BMP280;9663;48.996;8.334;2024-01-30T11:45:36;101697.94;;;19.18
19061;BMP280;9663;48.996;8.334;2024-01-30T11:48:03;101691.75;;;20.16
19061;BMP280;9663;48.996;8.334;2024-01-30T11:50:30;101697.03;;;20.87
19061;BMP280;9663;48.996;8.334;2024-01-30T11:52:57;101691.41;;;21.40
19061;BMP280;9663;48.996;8.334;2024-01-30T11:55:23;101685.88;;;21.85
19061;BMP280;9663;48.996;8.334;2024-01-30T11:57:49;101678.16;;;22.13
19061;BMP280;9663;48.996;8.334;2024-01-30T12:00:17;101673.94;;;22.65
19061;BMP280;9663;48.996;8.334;2024-01-30T12:02:48;101667.84;;;22.95
19061;BMP280;9663;48.996;8.334;2024-01-30T12:05:14;101656.97;;;23.34
19061;BMP280;9663;48.996;8.334;2024-01-30T12:07:44;101650.50;;;23.47
19061;BMP280;9663;48.996;8.334;2024-01-30T12:10:12;101649.13;;;23.37
19061;BMP280;9663;48.996;8.334;2024-01-30T12:12:42;101643.88;;;23.14
19061;BMP280;9663;48.996;8.334;2024-01-30T12:15:08;101643.28;;;22.80
19061;BMP280;9663;48.996;8.334;2024-01-30T12:17:34;101644.13;;;22.81
19061;BMP280;9663;48.996;8.334;2024-01-30T12:20:15;101649.88;;;22.07
19061;BMP280;9663;48.996;8.334;2024-01-30T12:22:47;101646.31;;;21.83
19061;BMP280;9663;48.996;8.334;2024-01-30T12:25:15;101645.91;;;21.67
19061;BMP280;9663;48.996;8.334;2024-01-30T12:27:50;101637.03;;;21.77
19061;BMP280;9663;48.996;8.334;2024-01-30T12:30:19;101645.22;;;21.91
19061;BMP280;9663;48.996;8.334;2024-01-30T12:32:47;101655.94;;;21.47
19061;BMP280;9663;48.996;8.334;2024-01-30T12:35:19;101644.03;;;21.41
19061;BMP280;9663;48.996;8.334;2024-01-30T12:37:47;101643.16;;;21.43
19061;BMP280;9663;48.996;8.334;2024-01-30T12:40:15;101646.53;;;21.45
19061;BMP280;9663;48.996;8.334;2024-01-30T12:42:41;101652.00;;;21.33
19061;BMP280;9663;48.996;8.334;2024-01-30T12:45:08;101651.28;;;21.28
19061;BMP280;9663;48.996;8.334;2024-01-30T12:47:35;101654.22;;;21.15
19061;BMP280;9663;48.996;8.334;2024-01-30T12:50:00;101651.34;;;20.92
19061;BMP280;9663;48.996;8.334;2024-01-30T12:52:26;101650.84;;;20.77
19061;BMP280;9663;48.996;8.334;2024-01-30T12:54:52;101658.88;;;20.63
19061;BMP280;9663;48.996;8.334;2024-01-30T12:57:18;101645.03;;;20.70
19061;BMP280;9663;48.996;8.334;2024-01-30T12:59:45;101650.81;;;20.41
19061;BMP280;9663;48.996;8.334;2024-01-30T13:02:12;101656.28;;;20.27
19061;BMP280;9663;48.996;8.334;2024-01-30T13:04:38;101644.63;;;20.13
19061;BMP280;9663;48.996;8.334;2024-01-30T13:07:04;101641.56;;;19.95
19061;BMP280;9663;48.996;8.334;2024-01-30T13:09:31;101638.47;;;19.76
19061;BMP280;9663;48.996;8.334;2024-01-30T13:11:59;101644.72;;;19.65
19061;BMP280;9663;48.996;8.334;2024-01-30T13:14:25;101647.44;;;19.59
19061;BMP280;9663;48.996;8.334;2024-01-30T13:16:51;101645.81;;;19.97
19061;BMP280;9663;48.996;8.334;2024-01-30T13:19:18;101647.47;;;19.58
19061;BMP280;9663;48.996;8.334;2024-01-30T13:21:44;101645.06;;;19.47
19061;BMP280;9663;48.996;8.334;2024-01-30T13:24:09;101637.47;;;19.41
19061;BMP280;9663;48.996;8.334;2024-01-30T13:26:35;101651.28;;;19.36
19061;BMP280;9663;48.996;8.334;2024-01-30T13:29:01;101656.53;;;19.31
19061;BMP280;9663;48.996;8.334;2024-01-30T13:31:27;101659.16;;;19.28
19061;BMP280;9663;48.996;8.334;2024-01-30T13:33:54;101658.38;;;19.25
19061;BMP280;9663;48.996;8.334;2024-01-30T13:36:20;101663.50;;;19.27
19061;BMP280;9663;48.996;8.334;2024-01-30T13:38:47;101660.16;;;19.22
19061;BMP280;9663;48.996;8.334;2024-01-30T13:41:13;101653.34;;;19.18
19061;BMP280;9663;48.996;8.334;2024-01-30T13:43:38;101655.06;;;19.17
19061;BMP280;9663;48.996;8.334;2024-01-30T13:46:04;101662.75;;;19.19
19061;BMP280;9663;48.996;8.334;2024-01-30T13:48:31;101655.88;;;19.19
19061;BMP280;9663;48.996;8.334;2024-01-30T13:50:57;101655.06;;;19.17
19061;BMP280;9663;48.996;8.334;2024-01-30T13:53:23;101647.34;;;19.17
19061;BMP280;9663;48.996;8.334;2024-01-30T13:55:49;101649.09;;;19.17
19061;BMP280;9663;48.996;8.334;2024-01-30T13:58:14;101646.56;;;19.14
19061;BMP280;9663;48.996;8.334;2024-01-30T14:00:40;101647.44;;;19.11
19061;BMP280;9663;48.996;8.334;2024-01-30T14:03:06;101652.63;;;19.10
19061;BMP280;9663;48.996;8.334;2024-01-30T14:05:32;101652.69;;;19.07
19061;BMP280;9663;48.996;8.334;2024-01-30T14:07:59;101657.84;;;19.07
19061;BMP280;9663;48.996;8.334;2024-01-30T14:10:25;101658.69;;;19.07
19061;BMP280;9663;48.996;8.334;2024-01-30T14:12:51;101656.94;;;19.08
19061;BMP280;9663;48.996;8.334;2024-01-30T14:15:17;101654.34;;;19.09
19061;BMP280;9663;48.996;8.334;2024-01-30T14:17:46;101660.28;;;19.13
19061;BMP280;9663;48.996;8.334;2024-01-30T14:20:14;101656.00;;;19.15
19061;BMP280;9663;48.996;8.334;2024-01-30T14:22:42;101655.13;;;19.14
19061;BMP280;9663;48.996;8.334;2024-01-30T14:25:08;101652.53;;;19.14
19061;BMP280;9663;48.996;8.334;2024-01-30T14:27:35;101655.16;;;19.13
19061;BMP280;9663;48.996;8.334;2024-01-30T14:30:01;101656.06;;;19.10
19061;BMP280;9663;48.996;8.334;2024-01-30T14:32:28;101656.09;;;19.07
19061;BMP280;9663;48.996;8.334;2024-01-30T14:34:54;101648.44;;;19.04
19061;BMP280;9663;48.996;8.334;2024-01-30T14:37:21;101645.88;;;19.04
19061;BMP280;9663;48.996;8.334;2024-01-30T14:39:47;101647.56;;;19.07
19061;BMP280;9663;48.996;8.334;2024-01-30T14:42:14;101651.81;;;19.06
19061;BMP280;9663;48.996;8.334;2024-01-30T14:44:41;101655.34;;;19.02
19061;BMP280;9663;48.996;8.334;2024-01-30T14:47:06;101650.25;;;18.96
19061;BMP280;9663;48.996;8.334;2024-01-30T14:49:32;101649.47;;;18.93
19061;BMP280;9663;48.996;8.334;2024-01-30T14:51:58;101650.38;;;18.90
19061;BMP280;9663;48.996;8.334;2024-01-30T14:54:27;101651.22;;;18.89
19061;BMP280;9663;48.996;8.334;2024-01-30T14:56:53;101645.22;;;19.40
19061;BMP280;9663;48.996;8.334;2024-01-30T14:59:19;101656.19;;;19.03
19061;BMP280;9663;48.996;8.334;2024-01-30T15:01:45;101645.22;;;19.40
19061;BMP280;9663;48.996;8.334;2024-01-30T15:04:11;101654.34;;;19.09
19061;BMP280;9663;48.996;8.334;2024-01-30T15:06:37;101656.13;;;19.06
19061;BMP280;9663;48.996;8.334;2024-01-30T15:09:03;101654.47;;;19.03
19061;BMP280;9663;48.996;8.334;2024-01-30T15:11:29;101658.81;;;18.98
19061;BMP280;9663;48.996;8.334;2024-01-30T15:13:56;101658.03;;;18.93
19061;BMP280;9663;48.996;8.334;2024-01-30T15:16:21;101665.81;;;18.89
19061;BMP280;9663;48.996;8.334;2024-01-30T15:18:47;101677.91;;;18.84
19061;BMP280;9663;48.996;8.334;2024-01-30T15:21:13;101667.69;;;18.78
19061;BMP280;9663;48.996;8.334;2024-01-30T15:23:39;101678.09;;;18.72
19061;BMP280;9663;48.996;8.334;2024-01-30T15:26:04;101684.13;;;18.68
19061;BMP280;9663;48.996;8.334;2024-01-30T15:28:38;101678.19;;;18.66
19061;BMP280;9663;48.996;8.334;2024-01-30T15:31:05;101681.63;;;18.64
19061;BMP280;9663;48.996;8.334;2024-01-30T15:33:32;101679.16;;;18.59
19061;BMP280;9663;48.996;8.334;2024-01-30T15:36:02;101678.34;;;18.56
19061;BMP280;9663;48.996;8.334;2024-01-30T15:38:28;101682.63;;;18.54
19061;BMP280;9663;48.996;8.334;2024-01-30T15:40:55;101679.25;;;18.50
19061;BMP280;9663;48.996;8.334;2024-01-30T15:43:21;101685.31;;;18.46
19061;BMP280;9663;48.996;8.334;2024-01-30T15:45:48;101685.38;;;18.42
19061;BMP280;9663;48.996;8.334;2024-01-30T15:48:14;101684.56;;;18.39
19061;BMP280;9663;48.996;8.334;2024-01-30T15:50:40;101686.34;;;18.35
19061;BMP280;9663;48.996;8.334;2024-01-30T15:53:05;101686.41;;;18.31
19061;BMP280;9663;48.996;8.334;2024-01-30T15:55:31;101687.31;;;18.27
19061;BMP280;9663;48.996;8.334;2024-01-30T15:57:57;101705.34;;;18.22
19061;BMP280;9663;48.996;8.334;2024-01-30T16:00:22;101694.44;;;18.65
19061;BMP280;9663;48.996;8.334;2024-01-30T16:02:48;101703.63;;;18.23